Samos, Greece
Current Conditions -  °F | °C
As of 5:50 PM on Thursday 27 Nov 2014 (Local Time) from LGSM Reporting Station
Few Clouds Few Clouds  
Wind Chill: 55°   Ceiling: Unl
Heat Index: 55°   Visibility: 6mi
Dew Point: 41°   Wind: 12mph
Humidity: 58%   Direction: 10°N
Pressure: 30.15"   Gusts: NA
Location:  37.76°N, 26.98°E
Report Text: LGSM 271450Z 01010KT 9999 FEW020 13/05 Q1021
Loading
Personal Weather Stations






























Interactive Weather Map New forecast layout! Learn more

10-Day Weather Forecast

Advertisements
Track Severe Weather on mobile